sensor_id;sensor_type;location;lat;lon;timestamp;P1;durP1;ratioP1;P2;durP2;ratioP2
45296;SDS011;31040;51.622;10.420;2023-10-19T00:00:24;23.38;;;16.48;;
45296;SDS011;31040;51.622;10.420;2023-10-19T00:02:51;25.42;;;15.90;;
45296;SDS011;31040;51.622;10.420;2023-10-19T00:05:19;27.00;;;17.45;;
45296;SDS011;31040;51.622;10.420;2023-10-19T00:07:46;26.15;;;18.10;;
45296;SDS011;31040;51.622;10.420;2023-10-19T00:10:14;25.13;;;17.83;;
45296;SDS011;31040;51.622;10.420;2023-10-19T00:12:42;23.23;;;17.55;;
45296;SDS011;31040;51.622;10.420;2023-10-19T00:15:10;26.58;;;18.80;;
45296;SDS011;31040;51.622;10.420;2023-10-19T00:17:38;25.08;;;17.20;;
45296;SDS011;31040;51.622;10.420;2023-10-19T00:20:11;28.15;;;18.77;;
45296;SDS011;31040;51.622;10.420;2023-10-19T00:23:01;25.13;;;17.45;;
45296;SDS011;31040;51.622;10.420;2023-10-19T00:25:32;26.33;;;17.77;;
45296;SDS011;31040;51.622;10.420;2023-10-19T00:28:08;27.83;;;19.38;;
45296;SDS011;31040;51.622;10.420;2023-10-19T00:30:35;28.88;;;19.42;;
45296;SDS011;31040;51.622;10.420;2023-10-19T00:33:03;31.00;;;20.00;;
45296;SDS011;31040;51.622;10.420;2023-10-19T00:35:33;27.70;;;18.20;;
45296;SDS011;31040;51.622;10.420;2023-10-19T00:38:02;29.63;;;21.02;;
45296;SDS011;31040;51.622;10.420;2023-10-19T00:40:53;28.25;;;19.30;;
45296;SDS011;31040;51.622;10.420;2023-10-19T00:43:26;27.58;;;19.20;;
45296;SDS011;31040;51.622;10.420;2023-10-19T00:45:55;30.35;;;20.48;;
45296;SDS011;31040;51.622;10.420;2023-10-19T00:48:25;29.60;;;20.20;;
45296;SDS011;31040;51.622;10.420;2023-10-19T00:50:53;28.38;;;19.88;;
45296;SDS011;31040;51.622;10.420;2023-10-19T00:53:34;31.48;;;21.20;;
45296;SDS011;31040;51.622;10.420;2023-10-19T00:56:03;30.50;;;20.58;;
45296;SDS011;31040;51.622;10.420;2023-10-19T00:58:37;32.30;;;21.50;;
45296;SDS011;31040;51.622;10.420;2023-10-19T01:01:08;30.08;;;20.58;;
45296;SDS011;31040;51.622;10.420;2023-10-19T01:06:09;27.55;;;20.25;;
45296;SDS011;31040;51.622;10.420;2023-10-19T01:08:39;25.75;;;15.98;;
45296;SDS011;31040;51.622;10.420;2023-10-19T01:11:10;28.35;;;18.70;;
45296;SDS011;31040;51.622;10.420;2023-10-19T01:13:39;32.38;;;22.55;;
45296;SDS011;31040;51.622;10.420;2023-10-19T01:16:18;30.10;;;20.30;;
45296;SDS011;31040;51.622;10.420;2023-10-19T01:18:49;29.88;;;21.23;;
45296;SDS011;31040;51.622;10.420;2023-10-19T01:21:21;31.58;;;21.88;;
45296;SDS011;31040;51.622;10.420;2023-10-19T01:23:51;32.28;;;22.20;;
45296;SDS011;31040;51.622;10.420;2023-10-19T01:26:19;28.85;;;20.42;;
45296;SDS011;31040;51.622;10.420;2023-10-19T01:28:53;31.67;;;20.90;;
45296;SDS011;31040;51.622;10.420;2023-10-19T01:31:27;31.05;;;21.70;;
45296;SDS011;31040;51.622;10.420;2023-10-19T01:33:55;33.83;;;22.52;;
45296;SDS011;31040;51.622;10.420;2023-10-19T01:36:23;30.90;;;22.20;;
45296;SDS011;31040;51.622;10.420;2023-10-19T01:38:51;31.08;;;21.83;;
45296;SDS011;31040;51.622;10.420;2023-10-19T01:41:24;30.63;;;19.88;;
45296;SDS011;31040;51.622;10.420;2023-10-19T01:43:53;32.58;;;20.52;;
45296;SDS011;31040;51.622;10.420;2023-10-19T01:46:21;34.22;;;22.42;;
45296;SDS011;31040;51.622;10.420;2023-10-19T01:49:03;34.58;;;22.38;;
45296;SDS011;31040;51.622;10.420;2023-10-19T01:51:31;29.17;;;19.67;;
45296;SDS011;31040;51.622;10.420;2023-10-19T01:53:59;32.92;;;21.02;;
45296;SDS011;31040;51.622;10.420;2023-10-19T01:56:27;35.58;;;22.98;;
45296;SDS011;31040;51.622;10.420;2023-10-19T01:58:55;30.02;;;21.38;;
45296;SDS011;31040;51.622;10.420;2023-10-19T02:01:25;33.03;;;21.40;;
45296;SDS011;31040;51.622;10.420;2023-10-19T02:03:53;28.73;;;21.40;;
45296;SDS011;31040;51.622;10.420;2023-10-19T02:06:28;32.95;;;22.42;;
45296;SDS011;31040;51.622;10.420;2023-10-19T02:09:07;30.77;;;21.10;;
45296;SDS011;31040;51.622;10.420;2023-10-19T02:11:45;31.23;;;22.13;;
45296;SDS011;31040;51.622;10.420;2023-10-19T02:14:14;29.45;;;19.85;;
45296;SDS011;31040;51.622;10.420;2023-10-19T02:16:52;27.98;;;18.48;;
45296;SDS011;31040;51.622;10.420;2023-10-19T02:19:23;29.30;;;20.60;;
45296;SDS011;31040;51.622;10.420;2023-10-19T02:21:52;26.80;;;19.25;;
45296;SDS011;31040;51.622;10.420;2023-10-19T02:24:20;26.95;;;20.15;;
45296;SDS011;31040;51.622;10.420;2023-10-19T02:26:49;30.40;;;19.25;;
45296;SDS011;31040;51.622;10.420;2023-10-19T02:29:18;26.35;;;19.17;;
45296;SDS011;31040;51.622;10.420;2023-10-19T02:31:45;26.02;;;18.70;;
45296;SDS011;31040;51.622;10.420;2023-10-19T02:34:14;29.73;;;19.13;;
45296;SDS011;31040;51.622;10.420;2023-10-19T02:36:42;27.13;;;19.02;;
45296;SDS011;31040;51.622;10.420;2023-10-19T02:39:13;27.77;;;17.98;;
45296;SDS011;31040;51.622;10.420;2023-10-19T02:41:41;25.33;;;18.25;;
45296;SDS011;31040;51.622;10.420;2023-10-19T02:46:46;27.95;;;17.25;;
45296;SDS011;31040;51.622;10.420;2023-10-19T02:49:15;25.55;;;16.90;;
45296;SDS011;31040;51.622;10.420;2023-10-19T02:51:48;28.25;;;19.17;;
45296;SDS011;31040;51.622;10.420;2023-10-19T02:54:16;27.73;;;18.92;;
45296;SDS011;31040;51.622;10.420;2023-10-19T02:56:49;24.10;;;17.15;;
45296;SDS011;31040;51.622;10.420;2023-10-19T02:59:22;26.38;;;18.98;;
45296;SDS011;31040;51.622;10.420;2023-10-19T03:04:18;27.13;;;15.82;;
45296;SDS011;31040;51.622;10.420;2023-10-19T03:06:47;19.33;;;14.82;;
45296;SDS011;31040;51.622;10.420;2023-10-19T03:09:15;19.42;;;14.50;;
45296;SDS011;31040;51.622;10.420;2023-10-19T03:11:49;19.20;;;13.90;;
45296;SDS011;31040;51.622;10.420;2023-10-19T03:14:26;17.00;;;13.23;;
45296;SDS011;31040;51.622;10.420;2023-10-19T03:16:54;14.85;;;10.50;;
45296;SDS011;31040;51.622;10.420;2023-10-19T03:19:22;13.70;;;10.88;;
45296;SDS011;31040;51.622;10.420;2023-10-19T03:21:51;12.43;;;10.07;;
45296;SDS011;31040;51.622;10.420;2023-10-19T03:24:19;11.98;;;9.02;;
45296;SDS011;31040;51.622;10.420;2023-10-19T03:27:05;13.68;;;10.32;;
45296;SDS011;31040;51.622;10.420;2023-10-19T03:29:54;8.88;;;7.95;;
45296;SDS011;31040;51.622;10.420;2023-10-19T03:32:22;10.48;;;7.93;;
45296;SDS011;31040;51.622;10.420;2023-10-19T03:34:54;10.00;;;8.95;;
45296;SDS011;31040;51.622;10.420;2023-10-19T03:37:23;11.18;;;7.68;;
45296;SDS011;31040;51.622;10.420;2023-10-19T03:39:52;9.50;;;7.57;;
45296;SDS011;31040;51.622;10.420;2023-10-19T03:42:23;6.78;;;6.03;;
45296;SDS011;31040;51.622;10.420;2023-10-19T03:44:59;7.07;;;6.38;;
45296;SDS011;31040;51.622;10.420;2023-10-19T03:47:29;6.93;;;5.95;;
45296;SDS011;31040;51.622;10.420;2023-10-19T03:50:03;6.30;;;5.70;;
45296;SDS011;31040;51.622;10.420;2023-10-19T03:52:37;6.88;;;6.18;;
45296;SDS011;31040;51.622;10.420;2023-10-19T03:55:05;5.80;;;5.20;;
45296;SDS011;31040;51.622;10.420;2023-10-19T03:57:45;6.97;;;5.55;;
45296;SDS011;31040;51.622;10.420;2023-10-19T04:00:22;5.50;;;4.93;;
45296;SDS011;31040;51.622;10.420;2023-10-19T04:02:54;5.53;;;5.03;;
45296;SDS011;31040;51.622;10.420;2023-10-19T04:05:22;5.40;;;4.72;;
45296;SDS011;31040;51.622;10.420;2023-10-19T04:07:51;6.38;;;5.65;;
45296;SDS011;31040;51.622;10.420;2023-10-19T04:10:22;5.57;;;4.32;;
45296;SDS011;31040;51.622;10.420;2023-10-19T04:12:56;5.25;;;4.38;;
45296;SDS011;31040;51.622;10.420;2023-10-19T04:15:28;5.78;;;5.15;;
45296;SDS011;31040;51.622;10.420;2023-10-19T04:17:55;5.65;;;5.05;;
45296;SDS011;31040;51.622;10.420;2023-10-19T04:20:25;6.47;;;5.88;;
45296;SDS011;31040;51.622;10.420;2023-10-19T04:22:53;7.07;;;6.35;;
45296;SDS011;31040;51.622;10.420;2023-10-19T04:25:20;7.50;;;6.43;;
45296;SDS011;31040;51.622;10.420;2023-10-19T04:27:57;6.88;;;6.28;;
45296;SDS011;31040;51.622;10.420;2023-10-19T04:30:24;6.85;;;6.15;;
45296;SDS011;31040;51.622;10.420;2023-10-19T04:32:53;6.10;;;5.38;;
45296;SDS011;31040;51.622;10.420;2023-10-19T04:35:24;5.82;;;5.10;;
45296;SDS011;31040;51.622;10.420;2023-10-19T04:37:56;5.60;;;5.00;;
45296;SDS011;31040;51.622;10.420;2023-10-19T04:40:24;6.28;;;5.47;;
45296;SDS011;31040;51.622;10.420;2023-10-19T04:42:52;6.68;;;5.63;;
45296;SDS011;31040;51.622;10.420;2023-10-19T04:45:21;5.40;;;4.90;;
45296;SDS011;31040;51.622;10.420;2023-10-19T04:47:52;6.78;;;5.35;;
45296;SDS011;31040;51.622;10.420;2023-10-19T04:50:21;5.13;;;4.63;;
45296;SDS011;31040;51.622;10.420;2023-10-19T04:52:49;5.97;;;4.80;;
45296;SDS011;31040;51.622;10.420;2023-10-19T04:55:16;6.07;;;5.32;;
45296;SDS011;31040;51.622;10.420;2023-10-19T04:57:44;5.35;;;4.25;;
45296;SDS011;31040;51.622;10.420;2023-10-19T05:00:12;5.40;;;4.90;;
45296;SDS011;31040;51.622;10.420;2023-10-19T05:02:41;5.57;;;4.35;;
45296;SDS011;31040;51.622;10.420;2023-10-19T05:05:09;4.90;;;4.40;;
45296;SDS011;31040;51.622;10.420;2023-10-19T05:07:37;4.97;;;4.25;;
45296;SDS011;31040;51.622;10.420;2023-10-19T05:10:04;4.88;;;4.40;;
45296;SDS011;31040;51.622;10.420;2023-10-19T05:12:32;4.68;;;4.25;;
45296;SDS011;31040;51.622;10.420;2023-10-19T05:15:00;4.97;;;4.45;;
45296;SDS011;31040;51.622;10.420;2023-10-19T05:17:27;4.82;;;4.32;;
45296;SDS011;31040;51.622;10.420;2023-10-19T05:19:55;5.80;;;5.07;;
45296;SDS011;31040;51.622;10.420;2023-10-19T05:22:23;6.28;;;4.90;;
45296;SDS011;31040;51.622;10.420;2023-10-19T05:24:56;5.40;;;4.88;;
45296;SDS011;31040;51.622;10.420;2023-10-19T05:27:23;6.00;;;5.40;;
45296;SDS011;31040;51.622;10.420;2023-10-19T05:29:51;6.00;;;5.28;;
45296;SDS011;31040;51.622;10.420;2023-10-19T05:32:18;6.38;;;5.50;;
45296;SDS011;31040;51.622;10.420;2023-10-19T05:34:46;6.07;;;5.43;;
45296;SDS011;31040;51.622;10.420;2023-10-19T05:37:14;8.25;;;6.47;;
45296;SDS011;31040;51.622;10.420;2023-10-19T05:39:43;9.30;;;8.15;;
45296;SDS011;31040;51.622;10.420;2023-10-19T05:42:10;6.45;;;5.55;;
45296;SDS011;31040;51.622;10.420;2023-10-19T05:44:38;6.35;;;5.63;;
45296;SDS011;31040;51.622;10.420;2023-10-19T05:47:05;5.78;;;5.20;;
45296;SDS011;31040;51.622;10.420;2023-10-19T05:49:33;6.07;;;5.47;;
45296;SDS011;31040;51.622;10.420;2023-10-19T05:52:01;7.38;;;6.63;;
45296;SDS011;31040;51.622;10.420;2023-10-19T05:54:29;8.02;;;5.97;;
45296;SDS011;31040;51.622;10.420;2023-10-19T05:56:57;9.40;;;7.55;;
45296;SDS011;31040;51.622;10.420;2023-10-19T05:59:25;11.00;;;8.63;;
45296;SDS011;31040;51.622;10.420;2023-10-19T06:01:53;9.57;;;7.65;;
45296;SDS011;31040;51.622;10.420;2023-10-19T06:04:20;10.55;;;8.30;;
45296;SDS011;31040;51.622;10.420;2023-10-19T06:06:48;9.20;;;7.75;;
45296;SDS011;31040;51.622;10.420;2023-10-19T06:09:15;8.10;;;6.70;;
45296;SDS011;31040;51.622;10.420;2023-10-19T06:11:44;6.72;;;6.07;;
45296;SDS011;31040;51.622;10.420;2023-10-19T06:14:12;6.55;;;5.95;;
45296;SDS011;31040;51.622;10.420;2023-10-19T06:16:39;8.05;;;7.25;;
45296;SDS011;31040;51.622;10.420;2023-10-19T06:19:07;8.98;;;8.05;;
45296;SDS011;31040;51.622;10.420;2023-10-19T06:21:35;8.10;;;6.82;;
45296;SDS011;31040;51.622;10.420;2023-10-19T06:24:03;8.75;;;7.60;;
45296;SDS011;31040;51.622;10.420;2023-10-19T06:26:31;9.50;;;8.52;;
45296;SDS011;31040;51.622;10.420;2023-10-19T06:28:59;8.07;;;7.18;;
45296;SDS011;31040;51.622;10.420;2023-10-19T06:31:26;7.35;;;5.88;;
45296;SDS011;31040;51.622;10.420;2023-10-19T06:33:56;7.53;;;6.47;;
45296;SDS011;31040;51.622;10.420;2023-10-19T06:36:24;7.38;;;6.47;;
45296;SDS011;31040;51.622;10.420;2023-10-19T06:38:52;8.48;;;7.38;;
45296;SDS011;31040;51.622;10.420;2023-10-19T06:41:21;9.70;;;8.77;;
45296;SDS011;31040;51.622;10.420;2023-10-19T06:43:49;10.38;;;8.88;;
45296;SDS011;31040;51.622;10.420;2023-10-19T06:46:16;11.10;;;8.93;;
45296;SDS011;31040;51.622;10.420;2023-10-19T06:48:44;9.38;;;8.40;;
45296;SDS011;31040;51.622;10.420;2023-10-19T06:51:11;10.43;;;9.02;;
45296;SDS011;31040;51.622;10.420;2023-10-19T06:53:39;8.63;;;7.78;;
45296;SDS011;31040;51.622;10.420;2023-10-19T06:56:07;10.07;;;7.38;;
45296;SDS011;31040;51.622;10.420;2023-10-19T06:58:35;10.93;;;8.82;;
45296;SDS011;31040;51.622;10.420;2023-10-19T07:01:06;11.15;;;8.75;;
45296;SDS011;31040;51.622;10.420;2023-10-19T07:03:35;10.35;;;8.57;;
45296;SDS011;31040;51.622;10.420;2023-10-19T07:06:03;8.52;;;6.93;;
45296;SDS011;31040;51.622;10.420;2023-10-19T07:08:39;8.35;;;7.22;;
45296;SDS011;31040;51.622;10.420;2023-10-19T07:11:09;7.63;;;6.70;;
45296;SDS011;31040;51.622;10.420;2023-10-19T07:13:37;7.32;;;6.57;;
45296;SDS011;31040;51.622;10.420;2023-10-19T07:16:06;8.32;;;7.40;;
45296;SDS011;31040;51.622;10.420;2023-10-19T07:18:35;11.00;;;6.68;;
45296;SDS011;31040;51.622;10.420;2023-10-19T07:21:03;9.27;;;7.03;;
45296;SDS011;31040;51.622;10.420;2023-10-19T07:23:32;9.43;;;7.30;;
45296;SDS011;31040;51.622;10.420;2023-10-19T07:25:59;12.55;;;8.20;;
45296;SDS011;31040;51.622;10.420;2023-10-19T07:28:27;11.60;;;9.32;;
45296;SDS011;31040;51.622;10.420;2023-10-19T07:30:55;11.45;;;8.93;;
45296;SDS011;31040;51.622;10.420;2023-10-19T07:33:23;12.30;;;9.43;;
45296;SDS011;31040;51.622;10.420;2023-10-19T07:35:50;10.10;;;8.45;;
45296;SDS011;31040;51.622;10.420;2023-10-19T07:38:21;11.60;;;8.93;;
45296;SDS011;31040;51.622;10.420;2023-10-19T07:40:50;12.40;;;10.32;;
45296;SDS011;31040;51.622;10.420;2023-10-19T07:43:20;10.38;;;8.70;;
45296;SDS011;31040;51.622;10.420;2023-10-19T07:45:48;11.60;;;8.73;;
45296;SDS011;31040;51.622;10.420;2023-10-19T07:48:16;12.45;;;8.88;;
45296;SDS011;31040;51.622;10.420;2023-10-19T07:50:44;11.27;;;8.88;;
45296;SDS011;31040;51.622;10.420;2023-10-19T07:53:12;11.57;;;7.72;;
45296;SDS011;31040;51.622;10.420;2023-10-19T07:55:39;10.85;;;8.43;;
45296;SDS011;31040;51.622;10.420;2023-10-19T07:58:07;8.48;;;7.50;;
45296;SDS011;31040;51.622;10.420;2023-10-19T08:00:35;12.15;;;8.45;;
45296;SDS011;31040;51.622;10.420;2023-10-19T08:03:03;10.70;;;8.68;;
45296;SDS011;31040;51.622;10.420;2023-10-19T08:05:35;10.30;;;8.20;;
45296;SDS011;31040;51.622;10.420;2023-10-19T08:08:05;12.18;;;8.77;;
45296;SDS011;31040;51.622;10.420;2023-10-19T08:10:32;11.38;;;8.48;;
45296;SDS011;31040;51.622;10.420;2023-10-19T08:13:01;12.38;;;8.90;;
45296;SDS011;31040;51.622;10.420;2023-10-19T08:15:29;10.80;;;8.85;;
45296;SDS011;31040;51.622;10.420;2023-10-19T08:17:57;13.40;;;8.48;;
45296;SDS011;31040;51.622;10.420;2023-10-19T08:20:24;11.75;;;9.07;;
45296;SDS011;31040;51.622;10.420;2023-10-19T08:22:59;12.50;;;8.82;;
45296;SDS011;31040;51.622;10.420;2023-10-19T08:25:29;12.02;;;9.25;;
45296;SDS011;31040;51.622;10.420;2023-10-19T08:28:00;9.63;;;8.60;;
45296;SDS011;31040;51.622;10.420;2023-10-19T08:30:28;11.77;;;9.15;;
45296;SDS011;31040;51.622;10.420;2023-10-19T08:32:55;10.85;;;9.05;;
45296;SDS011;31040;51.622;10.420;2023-10-19T08:35:24;9.15;;;7.80;;
45296;SDS011;31040;51.622;10.420;2023-10-19T08:37:53;9.05;;;7.47;;
45296;SDS011;31040;51.622;10.420;2023-10-19T08:40:20;12.43;;;10.15;;
45296;SDS011;31040;51.622;10.420;2023-10-19T08:42:50;9.82;;;7.85;;
45296;SDS011;31040;51.622;10.420;2023-10-19T08:45:17;10.77;;;8.45;;
45296;SDS011;31040;51.622;10.420;2023-10-19T08:47:58;10.15;;;8.98;;
45296;SDS011;31040;51.622;10.420;2023-10-19T08:50:36;10.77;;;8.07;;
45296;SDS011;31040;51.622;10.420;2023-10-19T08:53:06;14.13;;;11.57;;
45296;SDS011;31040;51.622;10.420;2023-10-19T08:55:35;10.05;;;6.90;;
45296;SDS011;31040;51.622;10.420;2023-10-19T08:58:15;13.73;;;8.68;;
45296;SDS011;31040;51.622;10.420;2023-10-19T09:00:48;14.63;;;9.98;;
45296;SDS011;31040;51.622;10.420;2023-10-19T09:03:18;14.23;;;10.30;;
45296;SDS011;31040;51.622;10.420;2023-10-19T09:05:46;15.05;;;9.80;;
45296;SDS011;31040;51.622;10.420;2023-10-19T09:08:17;14.52;;;10.85;;
45296;SDS011;31040;51.622;10.420;2023-10-19T09:10:47;15.82;;;10.75;;
45296;SDS011;31040;51.622;10.420;2023-10-19T09:13:16;18.00;;;9.77;;
45296;SDS011;31040;51.622;10.420;2023-10-19T09:15:46;15.82;;;10.32;;
45296;SDS011;31040;51.622;10.420;2023-10-19T09:18:20;14.70;;;9.60;;
45296;SDS011;31040;51.622;10.420;2023-10-19T09:20:48;15.93;;;11.68;;
45296;SDS011;31040;51.622;10.420;2023-10-19T09:23:23;15.18;;;10.95;;
45296;SDS011;31040;51.622;10.420;2023-10-19T09:25:56;19.60;;;13.55;;
45296;SDS011;31040;51.622;10.420;2023-10-19T09:28:24;17.98;;;13.02;;
45296;SDS011;31040;51.622;10.420;2023-10-19T09:30:52;15.82;;;10.75;;
45296;SDS011;31040;51.622;10.420;2023-10-19T09:33:22;16.70;;;11.30;;
45296;SDS011;31040;51.622;10.420;2023-10-19T09:35:50;19.35;;;13.25;;
45296;SDS011;31040;51.622;10.420;2023-10-19T09:38:20;14.50;;;10.80;;
45296;SDS011;31040;51.622;10.420;2023-10-19T09:40:54;19.05;;;11.68;;
45296;SDS011;31040;51.622;10.420;2023-10-19T09:46:00;15.23;;;10.70;;
45296;SDS011;31040;51.622;10.420;2023-10-19T09:48:28;16.70;;;10.18;;
45296;SDS011;31040;51.622;10.420;2023-10-19T09:50:56;15.65;;;10.32;;
45296;SDS011;31040;51.622;10.420;2023-10-19T09:53:25;15.85;;;11.30;;
45296;SDS011;31040;51.622;10.420;2023-10-19T09:55:57;17.88;;;11.82;;
45296;SDS011;31040;51.622;10.420;2023-10-19T09:58:28;16.08;;;10.55;;
45296;SDS011;31040;51.622;10.420;2023-10-19T10:00:57;17.65;;;10.48;;
45296;SDS011;31040;51.622;10.420;2023-10-19T10:03:58;21.23;;;13.23;;
45296;SDS011;31040;51.622;10.420;2023-10-19T10:06:28;26.02;;;15.35;;
45296;SDS011;31040;51.622;10.420;2023-10-19T10:08:58;23.60;;;13.40;;
45296;SDS011;31040;51.622;10.420;2023-10-19T10:11:26;20.80;;;11.80;;
45296;SDS011;31040;51.622;10.420;2023-10-19T10:13:55;20.95;;;11.90;;
45296;SDS011;31040;51.622;10.420;2023-10-19T10:16:24;20.30;;;11.50;;
45296;SDS011;31040;51.622;10.420;2023-10-19T10:18:55;21.85;;;11.95;;
45296;SDS011;31040;51.622;10.420;2023-10-19T10:21:26;19.23;;;11.63;;
45296;SDS011;31040;51.622;10.420;2023-10-19T10:24:02;19.27;;;10.57;;
45296;SDS011;31040;51.622;10.420;2023-10-19T10:26:31;19.17;;;11.55;;
45296;SDS011;31040;51.622;10.420;2023-10-19T10:31:41;20.25;;;11.77;;
45296;SDS011;31040;51.622;10.420;2023-10-19T10:34:09;20.65;;;12.45;;
45296;SDS011;31040;51.622;10.420;2023-10-19T10:39:24;15.93;;;10.90;;
45296;SDS011;31040;51.622;10.420;2023-10-19T10:41:56;16.33;;;12.00;;
45296;SDS011;31040;51.622;10.420;2023-10-19T10:47:26;20.50;;;13.25;;
45296;SDS011;31040;51.622;10.420;2023-10-19T10:49:57;22.05;;;14.07;;
45296;SDS011;31040;51.622;10.420;2023-10-19T10:54:52;24.77;;;20.17;;
45296;SDS011;31040;51.622;10.420;2023-10-19T10:57:20;15.20;;;12.45;;
45296;SDS011;31040;51.622;10.420;2023-10-19T10:59:47;17.02;;;11.15;;
45296;SDS011;31040;51.622;10.420;2023-10-19T11:02:27;15.98;;;10.57;;
45296;SDS011;31040;51.622;10.420;2023-10-19T11:04:55;13.48;;;10.93;;
45296;SDS011;31040;51.622;10.420;2023-10-19T11:07:23;14.63;;;11.38;;
45296;SDS011;31040;51.622;10.420;2023-10-19T11:09:52;14.32;;;10.82;;
45296;SDS011;31040;51.622;10.420;2023-10-19T11:12:22;13.48;;;10.55;;
45296;SDS011;31040;51.622;10.420;2023-10-19T11:14:51;10.68;;;8.55;;
45296;SDS011;31040;51.622;10.420;2023-10-19T11:17:20;10.48;;;8.02;;
45296;SDS011;31040;51.622;10.420;2023-10-19T11:19:55;10.32;;;8.00;;
45296;SDS011;31040;51.622;10.420;2023-10-19T11:22:23;12.38;;;8.70;;
45296;SDS011;31040;51.622;10.420;2023-10-19T11:24:51;11.93;;;7.70;;
45296;SDS011;31040;51.622;10.420;2023-10-19T11:27:23;13.60;;;9.25;;
45296;SDS011;31040;51.622;10.420;2023-10-19T11:29:54;8.55;;;6.70;;
45296;SDS011;31040;51.622;10.420;2023-10-19T11:32:22;9.88;;;7.47;;
45296;SDS011;31040;51.622;10.420;2023-10-19T11:34:53;7.80;;;7.00;;
45296;SDS011;31040;51.622;10.420;2023-10-19T11:37:21;8.80;;;7.38;;
45296;SDS011;31040;51.622;10.420;2023-10-19T11:39:48;9.13;;;7.13;;
45296;SDS011;31040;51.622;10.420;2023-10-19T11:42:19;8.63;;;7.72;;
45296;SDS011;31040;51.622;10.420;2023-10-19T11:44:46;9.48;;;7.65;;
45296;SDS011;31040;51.622;10.420;2023-10-19T11:47:14;8.18;;;6.90;;
45296;SDS011;31040;51.622;10.420;2023-10-19T11:49:41;9.07;;;7.05;;
45296;SDS011;31040;51.622;10.420;2023-10-19T11:52:09;9.05;;;7.55;;
45296;SDS011;31040;51.622;10.420;2023-10-19T11:54:36;9.77;;;8.75;;
45296;SDS011;31040;51.622;10.420;2023-10-19T11:57:05;10.93;;;8.75;;
45296;SDS011;31040;51.622;10.420;2023-10-19T11:59:32;8.82;;;7.93;;
45296;SDS011;31040;51.622;10.420;2023-10-19T12:02:00;9.32;;;8.00;;
45296;SDS011;31040;51.622;10.420;2023-10-19T12:04:30;9.88;;;8.65;;
45296;SDS011;31040;51.622;10.420;2023-10-19T12:06:59;8.57;;;7.70;;
45296;SDS011;31040;51.622;10.420;2023-10-19T12:09:27;9.30;;;7.82;;
45296;SDS011;31040;51.622;10.420;2023-10-19T12:11:55;8.65;;;7.13;;
45296;SDS011;31040;51.622;10.420;2023-10-19T12:14:22;7.53;;;6.82;;
45296;SDS011;31040;51.622;10.420;2023-10-19T12:16:50;6.43;;;5.82;;
45296;SDS011;31040;51.622;10.420;2023-10-19T12:19:17;7.00;;;5.45;;
45296;SDS011;31040;51.622;10.420;2023-10-19T12:21:45;6.47;;;5.88;;
45296;SDS011;31040;51.622;10.420;2023-10-19T12:24:13;5.03;;;4.13;;
45296;SDS011;31040;51.622;10.420;2023-10-19T12:26:41;7.63;;;6.00;;
45296;SDS011;31040;51.622;10.420;2023-10-19T12:29:09;7.28;;;6.28;;
45296;SDS011;31040;51.622;10.420;2023-10-19T12:31:38;6.15;;;5.55;;
45296;SDS011;31040;51.622;10.420;2023-10-19T12:34:06;7.75;;;5.80;;
45296;SDS011;31040;51.622;10.420;2023-10-19T12:36:34;6.93;;;6.30;;
45296;SDS011;31040;51.622;10.420;2023-10-19T12:39:01;7.68;;;6.45;;
45296;SDS011;31040;51.622;10.420;2023-10-19T12:41:34;7.45;;;6.38;;
45296;SDS011;31040;51.622;10.420;2023-10-19T12:44:01;7.85;;;6.88;;
45296;SDS011;31040;51.622;10.420;2023-10-19T12:46:34;9.27;;;7.03;;
45296;SDS011;31040;51.622;10.420;2023-10-19T12:49:05;10.80;;;8.32;;
45296;SDS011;31040;51.622;10.420;2023-10-19T12:51:40;12.88;;;8.15;;
45296;SDS011;31040;51.622;10.420;2023-10-19T12:54:08;10.80;;;7.85;;
45296;SDS011;31040;51.622;10.420;2023-10-19T12:56:36;8.80;;;7.68;;
45296;SDS011;31040;51.622;10.420;2023-10-19T12:59:05;10.38;;;8.75;;
45296;SDS011;31040;51.622;10.420;2023-10-19T13:01:34;12.45;;;9.25;;
45296;SDS011;31040;51.622;10.420;2023-10-19T13:04:02;10.68;;;8.73;;
45296;SDS011;31040;51.622;10.420;2023-10-19T13:06:40;11.93;;;8.32;;
45296;SDS011;31040;51.622;10.420;2023-10-19T13:09:08;10.43;;;7.72;;
45296;SDS011;31040;51.622;10.420;2023-10-19T13:11:35;8.98;;;7.35;;
45296;SDS011;31040;51.622;10.420;2023-10-19T13:14:05;10.23;;;7.88;;
45296;SDS011;31040;51.622;10.420;2023-10-19T13:16:32;9.50;;;7.78;;
45296;SDS011;31040;51.622;10.420;2023-10-19T13:19:00;12.43;;;9.02;;
45296;SDS011;31040;51.622;10.420;2023-10-19T13:21:39;10.60;;;9.40;;
45296;SDS011;31040;51.622;10.420;2023-10-19T13:24:08;13.15;;;10.02;;
45296;SDS011;31040;51.622;10.420;2023-10-19T13:26:36;13.25;;;9.63;;
45296;SDS011;31040;51.622;10.420;2023-10-19T13:29:06;11.43;;;9.18;;
45296;SDS011;31040;51.622;10.420;2023-10-19T13:31:34;12.55;;;10.07;;
45296;SDS011;31040;51.622;10.420;2023-10-19T13:34:01;11.20;;;9.00;;
45296;SDS011;31040;51.622;10.420;2023-10-19T13:36:30;10.65;;;9.35;;
45296;SDS011;31040;51.622;10.420;2023-10-19T13:38:57;9.98;;;8.18;;
45296;SDS011;31040;51.622;10.420;2023-10-19T13:41:25;10.95;;;8.20;;
45296;SDS011;31040;51.622;10.420;2023-10-19T13:43:53;10.23;;;8.25;;
45296;SDS011;31040;51.622;10.420;2023-10-19T13:46:21;12.82;;;9.88;;
45296;SDS011;31040;51.622;10.420;2023-10-19T13:48:50;10.55;;;8.52;;
45296;SDS011;31040;51.622;10.420;2023-10-19T13:51:17;9.32;;;8.40;;
45296;SDS011;31040;51.622;10.420;2023-10-19T13:53:49;12.20;;;8.43;;
45296;SDS011;31040;51.622;10.420;2023-10-19T13:56:16;12.20;;;8.48;;
45296;SDS011;31040;51.622;10.420;2023-10-19T13:58:44;10.00;;;8.43;;
45296;SDS011;31040;51.622;10.420;2023-10-19T14:01:14;11.45;;;8.68;;
45296;SDS011;31040;51.622;10.420;2023-10-19T14:03:43;9.57;;;8.45;;
45296;SDS011;31040;51.622;10.420;2023-10-19T14:06:12;10.60;;;9.05;;
45296;SDS011;31040;51.622;10.420;2023-10-19T14:08:40;13.93;;;9.73;;
45296;SDS011;31040;51.622;10.420;2023-10-19T14:11:08;13.85;;;10.30;;
45296;SDS011;31040;51.622;10.420;2023-10-19T14:13:35;8.40;;;7.43;;
45296;SDS011;31040;51.622;10.420;2023-10-19T14:16:06;9.15;;;6.80;;
45296;SDS011;31040;51.622;10.420;2023-10-19T14:18:36;8.70;;;7.70;;
45296;SDS011;31040;51.622;10.420;2023-10-19T14:21:10;9.50;;;8.07;;
45296;SDS011;31040;51.622;10.420;2023-10-19T14:23:38;9.50;;;8.55;;
45296;SDS011;31040;51.622;10.420;2023-10-19T14:26:07;10.70;;;9.45;;
45296;SDS011;31040;51.622;10.420;2023-10-19T14:28:35;10.50;;;9.35;;
45296;SDS011;31040;51.622;10.420;2023-10-19T14:31:03;11.68;;;9.02;;
45296;SDS011;31040;51.622;10.420;2023-10-19T14:33:31;8.85;;;7.95;;
45296;SDS011;31040;51.622;10.420;2023-10-19T14:35:59;12.75;;;7.18;;
45296;SDS011;31040;51.622;10.420;2023-10-19T14:38:27;8.85;;;6.90;;
45296;SDS011;31040;51.622;10.420;2023-10-19T14:40:54;8.75;;;6.45;;
45296;SDS011;31040;51.622;10.420;2023-10-19T14:43:22;9.63;;;6.88;;
45296;SDS011;31040;51.622;10.420;2023-10-19T14:45:49;13.13;;;8.60;;
45296;SDS011;31040;51.622;10.420;2023-10-19T14:48:17;10.10;;;8.85;;
45296;SDS011;31040;51.622;10.420;2023-10-19T14:50:46;10.40;;;8.27;;
45296;SDS011;31040;51.622;10.420;2023-10-19T14:53:13;9.68;;;7.53;;
45296;SDS011;31040;51.622;10.420;2023-10-19T14:55:42;9.75;;;7.32;;